Search for airport 
image banner adimage banner adimage banner ad
image banner ad

IA58 - B-8 Farms

Located in Whiting, United States

ICAO - IA58, IATA -

Data provided by Airmate  

General information

Coordinates: N42°6'54" W96°10'19"
Elevation is 1063 feet MSL.
Magnetic variation is 06° East
View others Airports in Iowa

Operational data

Special qualification required
Current time UTC:
Current local time:
METAR: KSUX 150852Z AUTO 00000KT 10SM CLR 15/12 A3012 RMK AO2 SLP191 T01500117 53010
TAF: KSUX 150520Z 1506/1606 VRB04KT P6SM SKC FM151400 11005KT P6SM SKC FM151900 09006KT P6SM SKC
View NOTAMs / SUP AIP / TFR affecting this airport [VIEW]
Communications frequencies: [VIEW]

Runways:

RWY identifierQFULength (ft)Width (ft)SurfaceLDA (ft)
N240075GRASS
S240075GRASS

Airport contact information

Address: Whiting United States

Satellite view of IA58